Flight Track Log - Related Links

Times and Time Zones

All times are in EDT time to prevent confusion due to time zone crossing. See the SKW5230 flight status page for this flight to view local times or setup timezone preferences in your user account.

Time Position Orientation Groundspeed Altitude Reporting Facility
EDT Latitude Longitude Course Direction KTS MPH feet Rate Location/Type
Mon 07:40:27 PM 33.6667 -84.3500 77° East 200 230 3,400  Level Atlanta TRACON
Mon 07:41:32 PM 33.7167 -84.2833 48° Northeast 250 288 5,700 2,300 Climbing Atlanta TRACON
Mon 07:42:00 PM 33.4841 -84.9688 251° West  Level Estimated
Mon 07:42:27 PM 33.7833 -84.2833 360° North 280 322 8,000  Level Atlanta TRACON
Mon 07:45:50 PM 33.7844 -84.6286 270° West 328 377 14,900 2,008 Climbing Atlanta Center
Mon 07:46:50 PM 33.7236 -84.7206 232° Southwest 328 377 16,800 1,650 Climbing Atlanta Center
Mon 07:47:50 PM 33.6603 -84.8200 233° Southwest 347 399 18,200 1,450 Climbing Atlanta Center
Mon 07:48:50 PM 33.6136 -84.9367 244° Southwest 373 429 19,700 1,500 Climbing Atlanta Center
Mon 07:49:50 PM 33.5708 -85.0536 246° West 387 445 21,200 1,450 Climbing Atlanta Center
Mon 07:50:50 PM 33.5281 -85.1778 248° West 397 457 22,600 1,300 Climbing Atlanta Center
Mon 07:51:50 PM 33.4997 -85.3044 255° West 397 457 23,800 1,150 Climbing Atlanta Center
Mon 07:52:50 PM 33.4794 -85.4411 260° West 404 465 24,900 1,050 Climbing Atlanta Center
Mon 07:53:50 PM 33.4569 -85.5750 259° West 415 478 25,900 1,000 Climbing Atlanta Center
Mon 07:54:50 PM 33.4344 -85.7117 259° West 415 478 26,900 1,000 Climbing Atlanta Center
Mon 07:55:50 PM 33.4139 -85.8331 259° West 421 484 27,900 950 Climbing Atlanta Center
Mon 07:56:50 PM 33.3908 -85.9719 259° West 421 484 28,800 900 Climbing Atlanta Center
Mon 07:57:50 PM 33.3678 -86.1158 259° West 431 496 29,700 700 Climbing Atlanta Center
Mon 07:58:50 PM 33.3464 -86.2619 260° West 437 503 30,200 500 Climbing Atlanta Center
Mon 07:59:50 PM 33.3228 -86.4056 259° West 443 510 30,700 500 Climbing Atlanta Center
Mon 08:00:50 PM 33.2989 -86.5514 259° West 449 517 31,200 500 Climbing Atlanta Center
Mon 08:01:50 PM 33.2728 -86.7047 259° West 455 524 31,700 600 Climbing Atlanta Center
Mon 08:02:50 PM 33.2486 -86.8531 259° West 462 532 32,400 750 Climbing Atlanta Center
Mon 08:03:50 PM 33.2283 -87.0039 261° West 468 539 33,200 750 Climbing Atlanta Center
Mon 08:04:50 PM 33.2142 -87.1597 264° West 463 533 33,900 700 Climbing Atlanta Center
Mon 08:05:50 PM 33.1997 -87.3083 263° West 451 519 34,600 739 Climbing Atlanta Center
Mon 08:08:13 PM 33.1683 -87.6503 264° West 445 512 36,400 761 Climbing Memphis Center
Mon 08:09:15 PM 33.1533 -87.7911 263° West 433 498 37,200 629 Climbing Memphis Center
Mon 08:10:17 PM 33.1394 -87.9303 263° West 425 489 37,700 387 Climbing Memphis Center
Mon 08:11:19 PM 33.1156 -88.0675 258° West 425 489 38,000 145 Climbing Memphis Center
Mon 08:12:21 PM 33.0647 -88.1939 244° Southwest 422 486 38,000  Level Memphis Center
Mon 08:13:23 PM 33.0072 -88.3358 244° Southwest 424 488 38,000  Level Memphis Center
Mon 08:14:25 PM 32.9564 -88.4636 245° Southwest 425 489 38,000  Level Memphis Center
Mon 08:15:27 PM 32.9064 -88.5919 245° Southwest 427 491 38,000  Level Memphis Center
Mon 08:16:29 PM 32.8544 -88.7197 244° Southwest 430 495 38,000  Level Memphis Center
Mon 08:17:31 PM 32.7922 -88.8731 244° Southwest 430 495 38,000  Level Memphis Center
Mon 08:18:33 PM 32.7406 -89.0022 245° Southwest 431 496 38,000  Level Memphis Center
Mon 08:19:34 PM 32.6889 -89.1319 245° Southwest 434 499 38,000  Level Memphis Center
Mon 08:20:36 PM 32.6350 -89.2631 244° Southwest 437 503 38,000  Level Memphis Center
Mon 08:21:38 PM 32.5817 -89.3942 244° Southwest 438 504 38,000  Level Memphis Center
Mon 08:22:40 PM 32.5283 -89.5256 244° Southwest 439 505 38,000  Level Memphis Center
Mon 08:23:42 PM 32.4633 -89.6836 244° Southwest 441 507 38,000  Level Memphis Center
Mon 08:24:44 PM 32.4086 -89.8156 244° Southwest 442 509 38,000  Level Memphis Center
Mon 08:25:46 PM 32.3536 -89.9469 244° Southwest 443 510 38,000  Level Memphis Center
Mon 08:26:48 PM 32.2983 -90.0794 244° Southwest 447 514 38,000  Level Memphis Center
Mon 08:27:49 PM 32.2439 -90.2128 244° Southwest 448 516 38,000  Level Memphis Center
Mon 08:28:51 PM 32.1892 -90.3439 244° Southwest 448 516 38,000  Level Memphis Center
Mon 08:29:53 PM 32.1228 -90.5000 243° Southwest 447 514 38,000  Level Memphis Center
Mon 08:30:55 PM 32.0681 -90.6306 244° Southwest 447 514 38,000  Level Memphis Center
Mon 08:31:57 PM 32.0119 -90.7611 243° Southwest 447 514 38,000  Level Memphis Center
Mon 08:32:58 PM 31.9561 -90.8928 243° Southwest 448 516 38,000  Level Memphis Center
Mon 08:34:00 PM 31.9000 -91.0231 243° Southwest 448 516 38,000  Level Memphis Center
Mon 08:35:02 PM 31.8433 -91.1553 243° Southwest 451 519 38,000  Level Memphis Center
Mon 08:36:07 PM 31.7842 -91.2950 244° Southwest 457 526 38,000  Level Houston Center
Mon 08:37:08 PM 31.7136 -91.4542 243° Southwest 457 526 38,000  Level Houston Center
Mon 08:38:10 PM 31.6572 -91.5867 243° Southwest 457 526 38,000  Level Houston Center
Mon 08:39:12 PM 31.6111 -91.7233 248° West 455 524 38,000  Level Houston Center
Mon 08:40:13 PM 31.5692 -91.8614 250° West 453 521 38,000  Level Houston Center
Mon 08:41:16 PM 31.5225 -91.9981 248° West 452 520 38,000  Level Houston Center
Mon 08:42:17 PM 31.4481 -92.1425 239° Southwest 452 520 38,000  Level Houston Center
Mon 08:43:18 PM 31.3800 -92.2681 238° Southwest 453 521 38,000  Level Houston Center
Mon 08:44:20 PM 31.3119 -92.3936 238° Southwest 455 524 38,000  Level Houston Center
Mon 08:45:21 PM 31.2439 -92.5222 238° Southwest 462 532 38,000  Level Houston Center
Mon 08:46:23 PM 31.1986 -92.6658 250° West 465 535 38,000  Level Houston Center
Mon 08:47:25 PM 31.1494 -92.8050 248° West 468 539 38,000  Level Houston Center
Mon 08:48:26 PM 31.1006 -92.9444 248° West 468 539 38,000  Level Houston Center
Mon 08:49:28 PM 31.0808 -93.1217 263° West 457 526 38,000 -97 Level Houston Center
Mon 08:50:30 PM 31.0703 -93.2681 265° West 457 526 37,800 -829 Descending Houston Center
Mon 08:51:31 PM 31.0600 -93.4194 266° West 465 535 36,300 -1,610 Descending Houston Center
Mon 08:52:33 PM 31.0483 -93.5747 265° West 480 552 34,500 -1,707 Descending Houston Center
Mon 08:53:34 PM 31.0347 -93.7356 264° West 497 572 32,800 -2,488 Descending Houston Center
Mon 08:54:36 PM 30.9908 -93.8800 251° West 491 565 29,400 -3,823 Descending Houston Center
Mon 08:55:38 PM 30.8811 -94.0250 229° Southwest 498 573 24,900 -3,854 Descending Houston Center
Mon 08:56:39 PM 30.7986 -94.1394 230° Southwest 478 550 21,500 -3,122 Descending Houston Center
Mon 08:57:41 PM 30.7281 -94.2372 230° Southwest 449 517 18,500 -3,314 Descending Houston Center
Mon 08:58:24 PM 30.6633 -94.3275 230° Southwest 426 490 15,700 -3,246 Descending Houston Center
Mon 08:58:42 PM 30.6464 -94.3503 229° Southwest 427 491 15,200 -2,025 Descending Houston Center
Mon 08:59:44 PM 30.5789 -94.4433 230° Southwest 384 442 13,000 -1,561 Descending Houston Center
Mon 09:00:45 PM 30.5078 -94.5422 230° Southwest 335 386 12,000 -492 Descending Houston Center
Mon 09:01:46 PM 30.4472 -94.6325 232° Southwest 354 407 12,000 -341 Level Houston Center
Mon 09:02:48 PM 30.3900 -94.7125 230° Southwest 354 407 11,300 -984 Descending Houston Center
Mon 09:03:48 PM 30.3211 -94.8061 230° Southwest 335 386 10,000 -645 Descending Houston Center
Mon 09:04:49 PM 30.2594 -94.8864 228° Southwest 340 391 10,000  Level Houston Center
Mon 09:05:51 PM 30.1983 -94.9739 231° Southwest 336 387 10,000 -293 Level Houston Center
Mon 09:06:52 PM 30.1389 -95.0564 230° Southwest 301 346 9,400 -1,082 Descending Houston Center
Mon 09:07:53 PM 30.1156 -95.1439 253° West 290 334 7,800 -1,623 Descending Houston Center
Mon 09:08:54 PM 30.1008 -95.2350 259° West 288 331 6,100 -1,475 Descending Houston Center
Mon 09:09:55 PM 30.0925 -95.3278 264° West 276 318 4,800 -1,082 Descending Houston Center
Mon 09:10:56 PM 30.0919 -95.4122 270° West 238 274 3,900 -857 Descending Houston Center
Mon 09:12:01 PM 30.0925 -95.4794 271° West 244 281 3,000 -425 Descending Houston Center
Mon 09:13:03 PM 30.0883 -95.5519 266° West 233 268 3,000  Level Houston Center
Mon 09:14:04 PM 30.0200 -95.5542 182° South 231 266 3,000 -195 Level Houston Center
Mon 09:15:06 PM 30.0089 -95.4922 102° East 195 224 2,600 -390 Descending Houston Center
Mon 09:16:07 PM 30.0067 -95.4411 93° East 186 214 2,200 -885 Descending Houston Center
Mon 09:17:08 PM 30.0072 -95.4019 89° East 147 169 800 -934 Descending Houston Center
Mon 09:18:09 PM 30.0072 -95.3575 90° East 137 158 300 -492 Descending Houston Center

Login

Don't have an account? Register now (free) for customized features, flight alerts, and more!